sensor_id;sensor_type;location;lat;lon;timestamp;P1;durP1;ratioP1;P2;durP2;ratioP2
22318;SDS011;11327;52.334;9.506;2022-09-09T00:05:16;2.37;;;1.17;;
22318;SDS011;11327;52.334;9.506;2022-09-09T00:08:43;3.30;;;1.30;;
22318;SDS011;11327;52.334;9.506;2022-09-09T00:12:11;3.20;;;1.20;;
22318;SDS011;11327;52.334;9.506;2022-09-09T00:15:44;2.35;;;1.30;;
22318;SDS011;11327;52.334;9.506;2022-09-09T00:22:33;2.65;;;1.40;;
22318;SDS011;11327;52.334;9.506;2022-09-09T00:29:47;2.22;;;1.10;;
22318;SDS011;11327;52.334;9.506;2022-09-09T00:33:11;1.65;;;0.95;;
22318;SDS011;11327;52.334;9.506;2022-09-09T00:36:35;2.40;;;1.10;;
22318;SDS011;11327;52.334;9.506;2022-09-09T00:39:59;2.90;;;1.22;;
22318;SDS011;11327;52.334;9.506;2022-09-09T00:43:29;3.47;;;1.10;;
22318;SDS011;11327;52.334;9.506;2022-09-09T00:50:21;3.47;;;1.20;;
22318;SDS011;11327;52.334;9.506;2022-09-09T00:53:57;2.33;;;0.90;;
22318;SDS011;11327;52.334;9.506;2022-09-09T00:57:33;2.15;;;1.37;;
22318;SDS011;11327;52.334;9.506;2022-09-09T01:01:05;2.00;;;1.10;;
22318;SDS011;11327;52.334;9.506;2022-09-09T01:04:29;2.40;;;1.00;;
22318;SDS011;11327;52.334;9.506;2022-09-09T01:07:54;1.87;;;0.85;;
22318;SDS011;11327;52.334;9.506;2022-09-09T01:11:24;1.42;;;0.90;;
22318;SDS011;11327;52.334;9.506;2022-09-09T01:14:50;3.30;;;1.30;;
22318;SDS011;11327;52.334;9.506;2022-09-09T01:18:15;1.42;;;0.98;;
22318;SDS011;11327;52.334;9.506;2022-09-09T01:21:50;2.50;;;0.90;;
22318;SDS011;11327;52.334;9.506;2022-09-09T01:25:19;1.70;;;0.95;;
22318;SDS011;11327;52.334;9.506;2022-09-09T01:28:45;3.10;;;1.07;;
22318;SDS011;11327;52.334;9.506;2022-09-09T01:39:49;3.35;;;1.10;;
22318;SDS011;11327;52.334;9.506;2022-09-09T01:43:10;1.47;;;0.90;;
22318;SDS011;11327;52.334;9.506;2022-09-09T01:46:31;2.17;;;0.88;;
22318;SDS011;11327;52.334;9.506;2022-09-09T01:49:52;2.67;;;1.00;;
22318;SDS011;11327;52.334;9.506;2022-09-09T01:53:13;5.83;;;1.00;;
22318;SDS011;11327;52.334;9.506;2022-09-09T02:00:20;3.10;;;1.00;;
22318;SDS011;11327;52.334;9.506;2022-09-09T02:03:41;2.75;;;1.10;;
22318;SDS011;11327;52.334;9.506;2022-09-09T02:07:19;2.30;;;0.90;;
22318;SDS011;11327;52.334;9.506;2022-09-09T02:14:12;2.55;;;1.12;;
22318;SDS011;11327;52.334;9.506;2022-09-09T02:17:35;1.07;;;0.80;;
22318;SDS011;11327;52.334;9.506;2022-09-09T02:20:59;3.83;;;1.00;;
22318;SDS011;11327;52.334;9.506;2022-09-09T02:24:20;3.50;;;1.12;;
22318;SDS011;11327;52.334;9.506;2022-09-09T02:27:43;3.98;;;1.00;;
22318;SDS011;11327;52.334;9.506;2022-09-09T02:31:06;2.15;;;1.00;;
22318;SDS011;11327;52.334;9.506;2022-09-09T02:34:27;2.33;;;1.00;;
22318;SDS011;11327;52.334;9.506;2022-09-09T02:37:51;1.87;;;0.90;;
22318;SDS011;11327;52.334;9.506;2022-09-09T02:41:14;2.75;;;0.90;;
22318;SDS011;11327;52.334;9.506;2022-09-09T02:44:35;3.22;;;1.00;;
22318;SDS011;11327;52.334;9.506;2022-09-09T02:55:06;2.90;;;0.88;;
22318;SDS011;11327;52.334;9.506;2022-09-09T02:58:29;2.92;;;1.00;;
22318;SDS011;11327;52.334;9.506;2022-09-09T03:01:50;2.17;;;1.00;;
22318;SDS011;11327;52.334;9.506;2022-09-09T03:05:11;2.50;;;1.00;;
22318;SDS011;11327;52.334;9.506;2022-09-09T03:08:33;3.67;;;1.20;;
22318;SDS011;11327;52.334;9.506;2022-09-09T03:11:54;2.62;;;0.95;;
22318;SDS011;11327;52.334;9.506;2022-09-09T03:15:15;4.10;;;1.07;;
22318;SDS011;11327;52.334;9.506;2022-09-09T03:18:37;2.98;;;1.15;;
22318;SDS011;11327;52.334;9.506;2022-09-09T03:21:58;5.67;;;1.10;;
22318;SDS011;11327;52.334;9.506;2022-09-09T03:25:19;2.45;;;1.20;;
22318;SDS011;11327;52.334;9.506;2022-09-09T03:28:41;3.02;;;1.15;;
22318;SDS011;11327;52.334;9.506;2022-09-09T03:32:02;2.85;;;1.07;;
22318;SDS011;11327;52.334;9.506;2022-09-09T03:35:23;3.20;;;1.10;;
22318;SDS011;11327;52.334;9.506;2022-09-09T03:38:44;3.45;;;1.12;;
22318;SDS011;11327;52.334;9.506;2022-09-09T03:42:05;2.35;;;1.07;;
22318;SDS011;11327;52.334;9.506;2022-09-09T03:45:26;3.35;;;1.27;;
22318;SDS011;11327;52.334;9.506;2022-09-09T03:48:47;4.20;;;1.20;;
22318;SDS011;11327;52.334;9.506;2022-09-09T03:52:08;2.50;;;1.27;;
22318;SDS011;11327;52.334;9.506;2022-09-09T03:55:30;3.00;;;1.22;;
22318;SDS011;11327;52.334;9.506;2022-09-09T03:58:51;2.90;;;1.35;;
22318;SDS011;11327;52.334;9.506;2022-09-09T04:02:11;2.45;;;1.22;;
22318;SDS011;11327;52.334;9.506;2022-09-09T04:05:33;4.30;;;1.27;;
22318;SDS011;11327;52.334;9.506;2022-09-09T04:08:54;3.37;;;1.40;;
22318;SDS011;11327;52.334;9.506;2022-09-09T04:12:15;3.00;;;1.45;;
22318;SDS011;11327;52.334;9.506;2022-09-09T04:15:37;4.53;;;1.57;;
22318;SDS011;11327;52.334;9.506;2022-09-09T04:18:58;3.17;;;1.40;;
22318;SDS011;11327;52.334;9.506;2022-09-09T04:22:20;3.25;;;1.32;;
22318;SDS011;11327;52.334;9.506;2022-09-09T04:25:49;4.20;;;1.45;;
22318;SDS011;11327;52.334;9.506;2022-09-09T04:29:12;1.85;;;1.20;;
22318;SDS011;11327;52.334;9.506;2022-09-09T04:32:33;2.42;;;1.20;;
22318;SDS011;11327;52.334;9.506;2022-09-09T04:35:54;4.10;;;1.67;;
22318;SDS011;11327;52.334;9.506;2022-09-09T04:39:15;3.20;;;1.15;;
22318;SDS011;11327;52.334;9.506;2022-09-09T04:42:36;2.92;;;1.40;;
22318;SDS011;11327;52.334;9.506;2022-09-09T04:45:57;3.62;;;1.45;;
22318;SDS011;11327;52.334;9.506;2022-09-09T04:49:19;2.00;;;1.20;;
22318;SDS011;11327;52.334;9.506;2022-09-09T04:52:40;3.50;;;1.30;;
22318;SDS011;11327;52.334;9.506;2022-09-09T04:56:02;4.83;;;1.30;;
22318;SDS011;11327;52.334;9.506;2022-09-09T04:59:25;4.00;;;1.50;;
22318;SDS011;11327;52.334;9.506;2022-09-09T05:02:46;3.75;;;1.50;;
22318;SDS011;11327;52.334;9.506;2022-09-09T05:06:08;4.28;;;1.40;;
22318;SDS011;11327;52.334;9.506;2022-09-09T05:09:31;4.37;;;1.60;;
22318;SDS011;11327;52.334;9.506;2022-09-09T05:12:52;2.72;;;1.40;;
22318;SDS011;11327;52.334;9.506;2022-09-09T05:16:14;2.35;;;1.40;;
22318;SDS011;11327;52.334;9.506;2022-09-09T05:19:35;3.12;;;1.40;;
22318;SDS011;11327;52.334;9.506;2022-09-09T05:22:56;3.62;;;1.20;;
22318;SDS011;11327;52.334;9.506;2022-09-09T05:26:18;3.12;;;1.40;;
22318;SDS011;11327;52.334;9.506;2022-09-09T05:29:41;3.47;;;1.60;;
22318;SDS011;11327;52.334;9.506;2022-09-09T05:33:04;2.42;;;1.22;;
22318;SDS011;11327;52.334;9.506;2022-09-09T05:36:26;2.70;;;1.20;;
22318;SDS011;11327;52.334;9.506;2022-09-09T05:39:47;4.55;;;1.37;;
22318;SDS011;11327;52.334;9.506;2022-09-09T05:43:08;3.70;;;1.60;;
22318;SDS011;11327;52.334;9.506;2022-09-09T05:46:29;4.60;;;1.40;;
22318;SDS011;11327;52.334;9.506;2022-09-09T05:49:50;3.05;;;1.40;;
22318;SDS011;11327;52.334;9.506;2022-09-09T05:53:11;3.92;;;1.45;;
22318;SDS011;11327;52.334;9.506;2022-09-09T05:56:32;3.83;;;1.77;;
22318;SDS011;11327;52.334;9.506;2022-09-09T05:59:53;3.85;;;1.40;;
22318;SDS011;11327;52.334;9.506;2022-09-09T06:03:15;3.52;;;1.52;;
22318;SDS011;11327;52.334;9.506;2022-09-09T06:06:37;4.30;;;1.50;;
22318;SDS011;11327;52.334;9.506;2022-09-09T06:09:59;3.85;;;1.47;;
22318;SDS011;11327;52.334;9.506;2022-09-09T06:13:20;4.22;;;1.80;;
22318;SDS011;11327;52.334;9.506;2022-09-09T06:16:41;3.42;;;1.52;;
22318;SDS011;11327;52.334;9.506;2022-09-09T06:20:04;4.22;;;1.72;;
22318;SDS011;11327;52.334;9.506;2022-09-09T06:23:26;4.72;;;1.40;;
22318;SDS011;11327;52.334;9.506;2022-09-09T06:26:48;4.42;;;1.50;;
22318;SDS011;11327;52.334;9.506;2022-09-09T06:30:10;4.45;;;1.75;;
22318;SDS011;11327;52.334;9.506;2022-09-09T06:33:32;3.17;;;1.57;;
22318;SDS011;11327;52.334;9.506;2022-09-09T06:36:59;4.17;;;1.90;;
22318;SDS011;11327;52.334;9.506;2022-09-09T06:40:20;3.08;;;1.80;;
22318;SDS011;11327;52.334;9.506;2022-09-09T06:43:41;3.62;;;1.77;;
22318;SDS011;11327;52.334;9.506;2022-09-09T06:47:03;4.15;;;1.60;;
22318;SDS011;11327;52.334;9.506;2022-09-09T06:50:24;2.72;;;1.95;;
22318;SDS011;11327;52.334;9.506;2022-09-09T06:53:45;4.37;;;1.75;;
22318;SDS011;11327;52.334;9.506;2022-09-09T06:57:07;3.60;;;1.67;;
22318;SDS011;11327;52.334;9.506;2022-09-09T07:00:28;5.22;;;1.85;;
22318;SDS011;11327;52.334;9.506;2022-09-09T07:03:51;5.10;;;2.10;;
22318;SDS011;11327;52.334;9.506;2022-09-09T07:07:13;6.72;;;1.72;;
22318;SDS011;11327;52.334;9.506;2022-09-09T07:10:35;2.90;;;1.47;;
22318;SDS011;11327;52.334;9.506;2022-09-09T07:13:57;3.50;;;1.70;;
22318;SDS011;11327;52.334;9.506;2022-09-09T07:17:19;4.20;;;1.62;;
22318;SDS011;11327;52.334;9.506;2022-09-09T07:20:40;2.67;;;1.60;;
22318;SDS011;11327;52.334;9.506;2022-09-09T07:24:01;2.92;;;1.40;;
22318;SDS011;11327;52.334;9.506;2022-09-09T07:27:23;3.20;;;1.45;;
22318;SDS011;11327;52.334;9.506;2022-09-09T07:30:52;3.08;;;1.62;;
22318;SDS011;11327;52.334;9.506;2022-09-09T07:34:13;2.08;;;1.30;;
22318;SDS011;11327;52.334;9.506;2022-09-09T07:37:36;5.10;;;1.50;;
22318;SDS011;11327;52.334;9.506;2022-09-09T07:41:04;2.65;;;1.50;;
22318;SDS011;11327;52.334;9.506;2022-09-09T07:44:27;3.87;;;1.45;;
22318;SDS011;11327;52.334;9.506;2022-09-09T07:47:48;3.83;;;1.22;;
22318;SDS011;11327;52.334;9.506;2022-09-09T07:51:14;3.47;;;1.50;;
22318;SDS011;11327;52.334;9.506;2022-09-09T07:54:40;2.62;;;1.10;;
22318;SDS011;11327;52.334;9.506;2022-09-09T07:58:01;3.52;;;1.57;;
22318;SDS011;11327;52.334;9.506;2022-09-09T08:01:33;4.20;;;1.40;;
22318;SDS011;11327;52.334;9.506;2022-09-09T08:04:52;3.05;;;1.20;;
22318;SDS011;11327;52.334;9.506;2022-09-09T08:08:13;3.65;;;1.20;;
22318;SDS011;11327;52.334;9.506;2022-09-09T08:11:34;2.95;;;1.20;;
22318;SDS011;11327;52.334;9.506;2022-09-09T08:14:56;3.90;;;1.30;;
22318;SDS011;11327;52.334;9.506;2022-09-09T08:18:17;2.17;;;0.93;;
22318;SDS011;11327;52.334;9.506;2022-09-09T08:21:39;3.52;;;1.30;;
22318;SDS011;11327;52.334;9.506;2022-09-09T08:25:00;2.80;;;1.17;;
22318;SDS011;11327;52.334;9.506;2022-09-09T08:28:22;3.98;;;1.50;;
22318;SDS011;11327;52.334;9.506;2022-09-09T08:31:44;3.02;;;1.20;;
22318;SDS011;11327;52.334;9.506;2022-09-09T08:35:07;4.55;;;1.80;;
22318;SDS011;11327;52.334;9.506;2022-09-09T08:38:29;2.52;;;1.10;;
22318;SDS011;11327;52.334;9.506;2022-09-09T08:45:29;3.42;;;1.20;;
22318;SDS011;11327;52.334;9.506;2022-09-09T08:52:25;3.70;;;1.37;;
22318;SDS011;11327;52.334;9.506;2022-09-09T08:55:48;6.60;;;1.50;;
22318;SDS011;11327;52.334;9.506;2022-09-09T08:59:14;4.65;;;1.50;;
22318;SDS011;11327;52.334;9.506;2022-09-09T09:02:42;3.70;;;1.20;;
22318;SDS011;11327;52.334;9.506;2022-09-09T09:06:24;4.37;;;1.50;;
22318;SDS011;11327;52.334;9.506;2022-09-09T09:13:20;3.83;;;1.32;;
22318;SDS011;11327;52.334;9.506;2022-09-09T09:20:15;4.05;;;1.37;;
22318;SDS011;11327;52.334;9.506;2022-09-09T09:23:46;4.40;;;1.20;;
22318;SDS011;11327;52.334;9.506;2022-09-09T09:27:33;3.80;;;1.20;;
22318;SDS011;11327;52.334;9.506;2022-09-09T09:31:05;3.12;;;1.00;;
22318;SDS011;11327;52.334;9.506;2022-09-09T09:34:28;3.95;;;1.37;;
22318;SDS011;11327;52.334;9.506;2022-09-09T09:37:49;4.62;;;1.17;;
22318;SDS011;11327;52.334;9.506;2022-09-09T09:41:11;4.37;;;1.60;;
22318;SDS011;11327;52.334;9.506;2022-09-09T09:44:32;3.58;;;1.60;;
22318;SDS011;11327;52.334;9.506;2022-09-09T09:48:00;3.15;;;1.22;;
22318;SDS011;11327;52.334;9.506;2022-09-09T09:51:26;2.85;;;1.45;;
22318;SDS011;11327;52.334;9.506;2022-09-09T09:54:49;3.35;;;1.57;;
22318;SDS011;11327;52.334;9.506;2022-09-09T09:58:14;6.08;;;1.75;;
22318;SDS011;11327;52.334;9.506;2022-09-09T10:01:37;4.72;;;1.85;;
22318;SDS011;11327;52.334;9.506;2022-09-09T10:05:03;3.75;;;1.90;;
22318;SDS011;11327;52.334;9.506;2022-09-09T10:08:26;5.33;;;1.72;;
22318;SDS011;11327;52.334;9.506;2022-09-09T10:15:34;3.15;;;1.37;;
22318;SDS011;11327;52.334;9.506;2022-09-09T10:19:00;5.75;;;1.40;;
22318;SDS011;11327;52.334;9.506;2022-09-09T10:22:27;2.42;;;1.17;;
22318;SDS011;11327;52.334;9.506;2022-09-09T10:33:12;3.47;;;1.25;;
22318;SDS011;11327;52.334;9.506;2022-09-09T10:36:43;3.40;;;0.90;;
22318;SDS011;11327;52.334;9.506;2022-09-09T10:47:37;3.17;;;0.82;;
22318;SDS011;11327;52.334;9.506;2022-09-09T10:58:27;3.75;;;0.82;;
22318;SDS011;11327;52.334;9.506;2022-09-09T11:01:47;2.90;;;0.98;;
22318;SDS011;11327;52.334;9.506;2022-09-09T11:05:36;3.62;;;1.05;;
22318;SDS011;11327;52.334;9.506;2022-09-09T11:09:14;2.87;;;1.02;;
22318;SDS011;11327;52.334;9.506;2022-09-09T11:12:34;2.62;;;0.90;;
22318;SDS011;11327;52.334;9.506;2022-09-09T11:15:59;3.02;;;1.02;;
22318;SDS011;11327;52.334;9.506;2022-09-09T11:22:56;5.33;;;1.32;;
22318;SDS011;11327;52.334;9.506;2022-09-09T11:26:29;2.17;;;1.17;;
22318;SDS011;11327;52.334;9.506;2022-09-09T11:37:05;3.08;;;1.00;;
22318;SDS011;11327;52.334;9.506;2022-09-09T11:40:34;4.10;;;1.15;;
22318;SDS011;11327;52.334;9.506;2022-09-09T11:43:56;1.95;;;0.80;;
22318;SDS011;11327;52.334;9.506;2022-09-09T11:47:24;2.27;;;0.60;;
22318;SDS011;11327;52.334;9.506;2022-09-09T11:51:00;2.62;;;0.70;;
22318;SDS011;11327;52.334;9.506;2022-09-09T12:08:29;1.80;;;0.80;;
22318;SDS011;11327;52.334;9.506;2022-09-09T12:11:51;1.30;;;0.72;;
22318;SDS011;11327;52.334;9.506;2022-09-09T12:18:41;2.83;;;0.78;;
22318;SDS011;11327;52.334;9.506;2022-09-09T12:33:08;1.75;;;0.78;;
22318;SDS011;11327;52.334;9.506;2022-09-09T12:36:33;3.35;;;0.80;;
22318;SDS011;11327;52.334;9.506;2022-09-09T12:39:58;2.15;;;0.78;;
22318;SDS011;11327;52.334;9.506;2022-09-09T12:43:23;2.08;;;0.60;;
22318;SDS011;11327;52.334;9.506;2022-09-09T12:46:46;1.82;;;0.60;;
22318;SDS011;11327;52.334;9.506;2022-09-09T12:50:24;2.58;;;0.50;;
22318;SDS011;11327;52.334;9.506;2022-09-09T12:53:47;3.35;;;0.80;;
22318;SDS011;11327;52.334;9.506;2022-09-09T12:57:10;3.08;;;0.98;;
22318;SDS011;11327;52.334;9.506;2022-09-09T13:00:32;2.70;;;0.98;;
22318;SDS011;11327;52.334;9.506;2022-09-09T13:03:55;3.40;;;1.12;;
22318;SDS011;11327;52.334;9.506;2022-09-09T13:07:17;2.92;;;0.90;;
22318;SDS011;11327;52.334;9.506;2022-09-09T13:17:39;4.58;;;1.07;;
22318;SDS011;11327;52.334;9.506;2022-09-09T13:21:01;2.47;;;0.90;;
22318;SDS011;11327;52.334;9.506;2022-09-09T13:31:38;3.12;;;1.17;;
22318;SDS011;11327;52.334;9.506;2022-09-09T13:34:51;3.85;;;0.72;;
22318;SDS011;11327;52.334;9.506;2022-09-09T13:38:15;4.10;;;1.00;;
22318;SDS011;11327;52.334;9.506;2022-09-09T13:41:42;2.22;;;0.80;;
22318;SDS011;11327;52.334;9.506;2022-09-09T13:45:04;1.95;;;0.70;;
22318;SDS011;11327;52.334;9.506;2022-09-09T13:48:26;3.12;;;0.88;;
22318;SDS011;11327;52.334;9.506;2022-09-09T13:52:02;2.17;;;0.90;;
22318;SDS011;11327;52.334;9.506;2022-09-09T13:55:12;3.85;;;0.90;;
22318;SDS011;11327;52.334;9.506;2022-09-09T13:58:33;3.83;;;0.95;;
22318;SDS011;11327;52.334;9.506;2022-09-09T14:01:54;1.67;;;0.60;;
22318;SDS011;11327;52.334;9.506;2022-09-09T14:05:15;3.60;;;1.00;;
22318;SDS011;11327;52.334;9.506;2022-09-09T14:08:37;4.25;;;0.88;;
22318;SDS011;11327;52.334;9.506;2022-09-09T14:11:58;2.40;;;0.70;;
22318;SDS011;11327;52.334;9.506;2022-09-09T14:15:20;2.25;;;0.80;;
22318;SDS011;11327;52.334;9.506;2022-09-09T14:18:42;2.25;;;0.85;;
22318;SDS011;11327;52.334;9.506;2022-09-09T14:22:04;3.98;;;1.15;;
22318;SDS011;11327;52.334;9.506;2022-09-09T14:25:25;2.60;;;0.90;;
22318;SDS011;11327;52.334;9.506;2022-09-09T14:28:46;3.83;;;0.90;;
22318;SDS011;11327;52.334;9.506;2022-09-09T14:32:08;2.85;;;0.68;;
22318;SDS011;11327;52.334;9.506;2022-09-09T14:35:29;1.65;;;0.60;;
22318;SDS011;11327;52.334;9.506;2022-09-09T14:38:50;3.35;;;0.98;;
22318;SDS011;11327;52.334;9.506;2022-09-09T14:42:11;1.62;;;0.50;;
22318;SDS011;11327;52.334;9.506;2022-09-09T14:45:32;3.85;;;0.82;;
22318;SDS011;11327;52.334;9.506;2022-09-09T14:48:53;4.22;;;0.80;;
22318;SDS011;11327;52.334;9.506;2022-09-09T14:52:14;3.33;;;0.80;;
22318;SDS011;11327;52.334;9.506;2022-09-09T14:55:36;2.95;;;1.00;;
22318;SDS011;11327;52.334;9.506;2022-09-09T14:58:58;2.72;;;1.00;;
22318;SDS011;11327;52.334;9.506;2022-09-09T15:02:21;3.95;;;0.90;;
22318;SDS011;11327;52.334;9.506;2022-09-09T15:05:42;2.58;;;0.60;;
22318;SDS011;11327;52.334;9.506;2022-09-09T15:09:03;1.67;;;0.70;;
22318;SDS011;11327;52.334;9.506;2022-09-09T15:12:24;2.20;;;0.78;;
22318;SDS011;11327;52.334;9.506;2022-09-09T15:15:45;2.98;;;0.88;;
22318;SDS011;11327;52.334;9.506;2022-09-09T15:19:06;2.65;;;0.88;;
22318;SDS011;11327;52.334;9.506;2022-09-09T15:22:29;2.10;;;0.80;;
22318;SDS011;11327;52.334;9.506;2022-09-09T15:25:51;2.80;;;0.80;;
22318;SDS011;11327;52.334;9.506;2022-09-09T15:29:13;2.05;;;0.80;;
22318;SDS011;11327;52.334;9.506;2022-09-09T15:32:34;3.27;;;0.93;;
22318;SDS011;11327;52.334;9.506;2022-09-09T15:35:55;3.47;;;0.90;;
22318;SDS011;11327;52.334;9.506;2022-09-09T15:39:16;4.33;;;0.90;;
22318;SDS011;11327;52.334;9.506;2022-09-09T15:42:38;2.65;;;0.80;;
22318;SDS011;11327;52.334;9.506;2022-09-09T15:46:02;3.10;;;0.98;;
22318;SDS011;11327;52.334;9.506;2022-09-09T15:49:25;2.35;;;0.75;;
22318;SDS011;11327;52.334;9.506;2022-09-09T15:52:46;3.87;;;1.10;;
22318;SDS011;11327;52.334;9.506;2022-09-09T15:56:08;1.55;;;0.80;;
22318;SDS011;11327;52.334;9.506;2022-09-09T15:59:29;1.42;;;0.70;;
22318;SDS011;11327;52.334;9.506;2022-09-09T16:02:51;2.62;;;0.80;;
22318;SDS011;11327;52.334;9.506;2022-09-09T16:06:14;2.37;;;0.70;;
22318;SDS011;11327;52.334;9.506;2022-09-09T16:09:36;4.70;;;0.90;;
22318;SDS011;11327;52.334;9.506;2022-09-09T16:12:57;2.55;;;0.88;;
22318;SDS011;11327;52.334;9.506;2022-09-09T16:16:19;2.08;;;0.70;;
22318;SDS011;11327;52.334;9.506;2022-09-09T16:19:42;1.92;;;0.82;;
22318;SDS011;11327;52.334;9.506;2022-09-09T16:23:03;2.00;;;0.80;;
22318;SDS011;11327;52.334;9.506;2022-09-09T16:26:24;1.92;;;0.70;;
22318;SDS011;11327;52.334;9.506;2022-09-09T16:29:46;3.02;;;0.98;;
22318;SDS011;11327;52.334;9.506;2022-09-09T16:33:07;2.65;;;0.80;;
22318;SDS011;11327;52.334;9.506;2022-09-09T16:36:28;2.87;;;0.90;;
22318;SDS011;11327;52.334;9.506;2022-09-09T16:39:51;3.10;;;1.12;;
22318;SDS011;11327;52.334;9.506;2022-09-09T16:43:14;2.52;;;0.80;;
22318;SDS011;11327;52.334;9.506;2022-09-09T16:46:36;2.52;;;1.12;;
22318;SDS011;11327;52.334;9.506;2022-09-09T16:49:59;2.65;;;0.90;;
22318;SDS011;11327;52.334;9.506;2022-09-09T16:53:21;2.75;;;0.90;;
22318;SDS011;11327;52.334;9.506;2022-09-09T16:56:42;4.92;;;1.17;;
22318;SDS011;11327;52.334;9.506;2022-09-09T17:00:05;4.05;;;1.25;;
22318;SDS011;11327;52.334;9.506;2022-09-09T17:03:28;4.67;;;1.35;;
22318;SDS011;11327;52.334;9.506;2022-09-09T17:06:50;5.42;;;1.40;;
22318;SDS011;11327;52.334;9.506;2022-09-09T17:10:13;3.50;;;1.25;;
22318;SDS011;11327;52.334;9.506;2022-09-09T17:13:34;5.12;;;2.85;;
22318;SDS011;11327;52.334;9.506;2022-09-09T17:16:55;6.70;;;2.20;;
22318;SDS011;11327;52.334;9.506;2022-09-09T17:20:18;3.20;;;1.50;;
22318;SDS011;11327;52.334;9.506;2022-09-09T17:23:40;5.70;;;1.60;;
22318;SDS011;11327;52.334;9.506;2022-09-09T17:27:02;5.67;;;1.70;;
22318;SDS011;11327;52.334;9.506;2022-09-09T17:30:24;2.85;;;1.40;;
22318;SDS011;11327;52.334;9.506;2022-09-09T17:33:46;3.45;;;1.65;;
22318;SDS011;11327;52.334;9.506;2022-09-09T17:37:12;3.30;;;1.50;;
22318;SDS011;11327;52.334;9.506;2022-09-09T17:40:33;3.70;;;1.82;;
22318;SDS011;11327;52.334;9.506;2022-09-09T17:43:55;4.85;;;2.15;;
22318;SDS011;11327;52.334;9.506;2022-09-09T17:47:17;3.15;;;2.05;;
22318;SDS011;11327;52.334;9.506;2022-09-09T17:50:38;3.80;;;1.77;;
22318;SDS011;11327;52.334;9.506;2022-09-09T17:54:00;3.30;;;1.50;;
22318;SDS011;11327;52.334;9.506;2022-09-09T17:57:29;4.30;;;1.70;;
22318;SDS011;11327;52.334;9.506;2022-09-09T18:00:50;3.08;;;1.80;;
22318;SDS011;11327;52.334;9.506;2022-09-09T18:04:12;4.05;;;2.08;;
22318;SDS011;11327;52.334;9.506;2022-09-09T18:07:34;4.05;;;2.33;;
22318;SDS011;11327;52.334;9.506;2022-09-09T18:10:56;3.70;;;2.00;;
22318;SDS011;11327;52.334;9.506;2022-09-09T18:14:18;3.55;;;2.02;;
22318;SDS011;11327;52.334;9.506;2022-09-09T18:17:40;5.30;;;1.80;;
22318;SDS011;11327;52.334;9.506;2022-09-09T18:21:03;5.50;;;2.65;;
22318;SDS011;11327;52.334;9.506;2022-09-09T18:24:26;3.85;;;1.67;;
22318;SDS011;11327;52.334;9.506;2022-09-09T18:27:47;2.85;;;1.40;;
22318;SDS011;11327;52.334;9.506;2022-09-09T18:31:09;4.47;;;1.40;;
22318;SDS011;11327;52.334;9.506;2022-09-09T18:34:32;4.55;;;1.50;;
22318;SDS011;11327;52.334;9.506;2022-09-09T18:37:53;5.17;;;1.20;;
22318;SDS011;11327;52.334;9.506;2022-09-09T18:41:25;2.92;;;1.00;;
22318;SDS011;11327;52.334;9.506;2022-09-09T18:44:42;2.83;;;0.82;;
22318;SDS011;11327;52.334;9.506;2022-09-09T18:48:03;3.98;;;1.17;;
22318;SDS011;11327;52.334;9.506;2022-09-09T18:51:25;2.50;;;0.90;;
22318;SDS011;11327;52.334;9.506;2022-09-09T18:54:49;2.10;;;0.70;;
22318;SDS011;11327;52.334;9.506;2022-09-09T18:58:10;3.95;;;1.15;;
22318;SDS011;11327;52.334;9.506;2022-09-09T19:01:33;1.75;;;0.80;;
22318;SDS011;11327;52.334;9.506;2022-09-09T19:04:55;2.17;;;0.70;;
22318;SDS011;11327;52.334;9.506;2022-09-09T19:08:17;2.27;;;0.80;;
22318;SDS011;11327;52.334;9.506;2022-09-09T19:11:42;3.35;;;1.27;;
22318;SDS011;11327;52.334;9.506;2022-09-09T19:15:04;2.58;;;1.20;;
22318;SDS011;11327;52.334;9.506;2022-09-09T19:18:25;1.62;;;0.90;;
22318;SDS011;11327;52.334;9.506;2022-09-09T19:21:46;2.22;;;0.85;;
22318;SDS011;11327;52.334;9.506;2022-09-09T19:25:07;1.37;;;0.62;;
22318;SDS011;11327;52.334;9.506;2022-09-09T19:28:28;2.40;;;0.80;;
22318;SDS011;11327;52.334;9.506;2022-09-09T19:31:51;1.75;;;0.80;;
22318;SDS011;11327;52.334;9.506;2022-09-09T19:35:14;3.08;;;1.00;;
22318;SDS011;11327;52.334;9.506;2022-09-09T19:38:35;1.75;;;0.95;;
22318;SDS011;11327;52.334;9.506;2022-09-09T19:41:57;1.62;;;1.10;;
22318;SDS011;11327;52.334;9.506;2022-09-09T19:45:18;1.67;;;0.75;;
22318;SDS011;11327;52.334;9.506;2022-09-09T19:48:39;2.05;;;0.90;;
22318;SDS011;11327;52.334;9.506;2022-09-09T19:52:02;2.98;;;1.00;;
22318;SDS011;11327;52.334;9.506;2022-09-09T19:55:23;2.65;;;1.25;;
22318;SDS011;11327;52.334;9.506;2022-09-09T19:58:45;3.33;;;0.98;;
22318;SDS011;11327;52.334;9.506;2022-09-09T20:02:08;1.50;;;0.90;;
22318;SDS011;11327;52.334;9.506;2022-09-09T20:05:32;1.95;;;0.80;;
22318;SDS011;11327;52.334;9.506;2022-09-09T20:08:54;2.37;;;0.90;;
22318;SDS011;11327;52.334;9.506;2022-09-09T20:12:15;2.35;;;1.02;;
22318;SDS011;11327;52.334;9.506;2022-09-09T20:15:36;1.42;;;0.93;;
22318;SDS011;11327;52.334;9.506;2022-09-09T20:18:58;2.05;;;0.72;;
22318;SDS011;11327;52.334;9.506;2022-09-09T20:22:29;2.12;;;1.00;;
22318;SDS011;11327;52.334;9.506;2022-09-09T20:25:47;3.25;;;1.00;;
22318;SDS011;11327;52.334;9.506;2022-09-09T20:29:11;1.87;;;0.82;;
22318;SDS011;11327;52.334;9.506;2022-09-09T20:32:33;3.15;;;1.10;;
22318;SDS011;11327;52.334;9.506;2022-09-09T20:35:55;2.87;;;1.07;;
22318;SDS011;11327;52.334;9.506;2022-09-09T20:39:17;1.55;;;0.90;;
22318;SDS011;11327;52.334;9.506;2022-09-09T20:42:39;4.17;;;1.00;;
22318;SDS011;11327;52.334;9.506;2022-09-09T20:46:01;3.92;;;1.07;;
22318;SDS011;11327;52.334;9.506;2022-09-09T20:49:23;2.05;;;0.90;;
22318;SDS011;11327;52.334;9.506;2022-09-09T20:52:45;2.20;;;0.98;;
22318;SDS011;11327;52.334;9.506;2022-09-09T20:56:07;1.52;;;1.02;;
22318;SDS011;11327;52.334;9.506;2022-09-09T20:59:29;2.83;;;1.12;;
22318;SDS011;11327;52.334;9.506;2022-09-09T21:02:54;2.17;;;1.12;;
22318;SDS011;11327;52.334;9.506;2022-09-09T21:06:15;2.55;;;1.00;;
22318;SDS011;11327;52.334;9.506;2022-09-09T21:09:36;2.47;;;1.02;;
22318;SDS011;11327;52.334;9.506;2022-09-09T21:12:57;1.00;;;0.80;;
22318;SDS011;11327;52.334;9.506;2022-09-09T21:16:20;1.25;;;0.70;;
22318;SDS011;11327;52.334;9.506;2022-09-09T21:19:41;2.15;;;0.90;;
22318;SDS011;11327;52.334;9.506;2022-09-09T21:23:03;2.22;;;0.80;;
22318;SDS011;11327;52.334;9.506;2022-09-09T21:26:25;2.02;;;0.68;;
22318;SDS011;11327;52.334;9.506;2022-09-09T21:29:46;3.83;;;0.95;;
22318;SDS011;11327;52.334;9.506;2022-09-09T21:33:07;1.90;;;0.80;;
22318;SDS011;11327;52.334;9.506;2022-09-09T21:36:29;1.77;;;0.68;;
22318;SDS011;11327;52.334;9.506;2022-09-09T21:39:50;2.20;;;1.15;;
22318;SDS011;11327;52.334;9.506;2022-09-09T21:43:12;1.92;;;0.80;;
22318;SDS011;11327;52.334;9.506;2022-09-09T21:46:33;1.55;;;0.70;;
22318;SDS011;11327;52.334;9.506;2022-09-09T21:49:56;1.45;;;0.82;;
22318;SDS011;11327;52.334;9.506;2022-09-09T21:53:17;2.20;;;0.80;;
22318;SDS011;11327;52.334;9.506;2022-09-09T21:56:39;1.00;;;0.80;;
22318;SDS011;11327;52.334;9.506;2022-09-09T22:00:00;1.40;;;0.90;;
22318;SDS011;11327;52.334;9.506;2022-09-09T22:03:22;1.57;;;0.75;;
22318;SDS011;11327;52.334;9.506;2022-09-09T22:06:44;2.90;;;0.80;;
22318;SDS011;11327;52.334;9.506;2022-09-09T22:10:05;1.85;;;0.78;;
22318;SDS011;11327;52.334;9.506;2022-09-09T22:13:27;2.35;;;0.88;;
22318;SDS011;11327;52.334;9.506;2022-09-09T22:16:49;1.80;;;1.00;;
22318;SDS011;11327;52.334;9.506;2022-09-09T22:20:10;1.40;;;1.00;;
22318;SDS011;11327;52.334;9.506;2022-09-09T22:23:31;2.25;;;0.90;;
22318;SDS011;11327;52.334;9.506;2022-09-09T22:26:52;1.52;;;0.90;;
22318;SDS011;11327;52.334;9.506;2022-09-09T22:30:15;1.25;;;0.80;;
22318;SDS011;11327;52.334;9.506;2022-09-09T22:33:36;3.10;;;1.10;;